Hauptseite
METAR-TAF:

METAR-TAF

Flughäfen :

Militärflugplatz Deelen

Arnheim, Niederlande

Breite: 52-04N, Länge: 005-53E, Höhe: 48 m

Beobachtung

Neuester Wetterbericht von vor 27 Minuten, um 03:25 UTC
Wind 10 kt aus Nordost, variierte zwischen Nordwest und Ost
Temperatur 5°C
Luftfeuchtigkeit 87%
Luftdruck 1024 hPa
Sichtweite 10 km oder mehr
Leicht bewölkt in der Höhe von 1000 ft
Aufgelockert bewölkt in der Höhe von 1200 ft
Geschlossene Wolkendecke in der Höhe von 1600 ft

METAR: EHDL 190325Z AUTO 04010KT 310V100 9999 FEW010 SCT012 OVC016 05/03 Q1024 GRN

Zeit: 04:52 (03:52 UTC)


TAF: fehlend

Wetterbeobachtungen und Prognosen von mehr als 4000 Flughäfen (METAR und TAF Bericht).

Die verfügbaren Stationen werden durch gelbe und rote Markierungen auf der Karte dargestellt.

Führen Sie die Maus auf sie, um den Namen der Station zu sehen.

Darauf klicken, um die Beobachtung von Wetterbeobachtungen und Prognosen zu sehen.

Um die Karte zu ändern : klicken Sie auf den grünen Tasten mit einem schwarzen Kreuz Zum Vergrößern, auf den grünen Button mit einem Gedankenstrich zu verkleinern, oder auf die grünen Pfeile für benachbarte Karten.


METAR-TAF: